Time;durP1;ratioP1;P1;durP2;ratioP2;P2;SDS_P1;SDS_P2;PMS_P1;PMS_P2;Temp;Humidity;BMP_temperature;BMP_pressure;BME280_temperature;BME280_humidity;BME280_pressure;Samples;Min_cycle;Max_cycle;Signal;HPM_P1;HPM_P2
2021/06/08 00:00:30;;;;;;;5.60;4.13;;;;;;;16.24;77.38;100135.97;6306402;28;20048;-56
2021/06/08 00:03:31;;;;;;;6.25;4.00;;;;;;;16.24;76.67;100128.09;6324524;28;20044;-56
2021/06/08 00:06:32;;;;;;;6.13;3.97;;;;;;;16.20;77.14;100127.50;6306341;28;20042;-56
2021/06/08 00:09:33;;;;;;;5.68;4.07;;;;;;;16.16;77.39;100130.53;6322723;28;20052;-56
2021/06/08 00:12:34;;;;;;;5.80;3.75;;;;;;;16.11;78.27;100126.47;6306170;28;20032;-56
2021/06/08 00:15:35;;;;;;;7.25;4.22;;;;;;;16.10;77.34;100122.19;6324289;28;20040;-56
2021/06/08 00:18:36;;;;;;;6.38;3.90;;;;;;;16.10;77.56;100132.72;6322909;28;20042;-56
2021/06/08 00:21:36;;;;;;;7.95;4.18;;;;;;;16.04;77.76;100124.47;6322703;28;20036;-56
2021/06/08 00:24:37;;;;;;;10.07;3.78;;;;;;;16.04;77.47;100122.69;6333379;28;20036;-56
2021/06/08 00:27:38;;;;;;;5.00;3.70;;;;;;;16.02;78.78;100115.88;6347970;28;20379;-55
2021/06/08 00:30:38;;;;;;;8.18;4.20;;;;;;;16.15;75.75;100116.53;6347856;28;20051;-56
2021/06/08 00:33:39;;;;;;;6.72;3.65;;;;;;;16.23;74.49;100118.53;6347703;28;20130;-56
2021/06/08 00:36:40;;;;;;;6.40;4.07;;;;;;;16.22;75.66;100116.84;6347860;28;20090;-56
2021/06/08 00:39:41;;;;;;;4.43;3.90;;;;;;;16.15;76.50;100113.91;6330700;28;20038;-56
2021/06/08 00:42:44;;;;;;;6.60;4.07;;;;;;;16.25;74.78;100113.97;6348913;28;20092;-56
2021/06/08 00:45:45;;;;;;;7.55;4.22;;;;;;;16.26;74.50;100108.56;6348758;28;20048;-56
2021/06/08 00:48:45;;;;;;;8.80;4.45;;;;;;;16.28;74.91;100105.81;6330622;28;20122;-56
2021/06/08 00:51:46;;;;;;;7.22;4.25;;;;;;;16.26;75.51;100102.47;6347336;28;20127;-56
2021/06/08 00:54:47;;;;;;;4.78;4.18;;;;;;;16.27;74.28;100098.88;6347261;28;20104;-54
2021/06/08 00:57:50;;;;;;;7.85;4.05;;;;;;;16.29;73.43;100099.59;6347356;28;20039;-56
2021/06/08 01:00:50;;;;;;;6.25;4.38;;;;;;;16.31;73.29;100103.75;6348282;28;20032;-55
2021/06/08 01:03:52;;;;;;;6.57;4.10;;;;;;;16.32;74.17;100101.94;6347312;28;20188;-56
2021/06/08 01:06:52;;;;;;;10.33;5.10;;;;;;;16.17;75.37;100098.81;6348253;28;20039;-56
2021/06/08 01:09:56;;;;;;;5.25;4.13;;;;;;;16.14;75.50;100099.06;6347936;28;20552;-56
2021/06/08 01:12:57;;;;;;;11.02;4.45;;;;;;;16.10;75.34;100092.38;6330196;28;20047;-56
2021/06/08 01:16:02;;;;;;;8.05;4.18;;;;;;;16.14;75.61;100096.44;6348276;28;20414;-57
2021/06/08 01:19:03;;;;;;;8.57;4.22;;;;;;;16.06;77.05;100106.75;6345949;28;20135;-57
2021/06/08 01:22:04;;;;;;;8.90;4.80;;;;;;;15.91;77.81;100090.44;6347966;28;20040;-56
2021/06/08 01:25:06;;;;;;;8.32;4.65;;;;;;;16.02;76.56;100097.44;6347814;28;20516;-56
2021/06/08 01:28:07;;;;;;;6.53;4.22;;;;;;;15.97;77.58;100094.38;6346681;28;20046;-56
2021/06/08 01:31:11;;;;;;;5.97;4.43;;;;;;;15.88;78.30;100102.06;6346520;28;20127;-56
2021/06/08 01:34:14;;;;;;;7.20;4.13;;;;;;;15.88;77.61;100102.06;6347561;28;20058;-57
2021/06/08 01:37:15;;;;;;;13.13;5.30;;;;;;;15.88;77.49;100106.50;6347474;28;20481;-56
2021/06/08 01:40:19;;;;;;;10.35;4.68;;;;;;;15.75;78.73;100096.16;6347361;28;20044;-55
2021/06/08 01:43:20;;;;;;;8.07;5.40;;;;;;;15.84;78.40;100105.09;6346146;28;20512;-57
2021/06/08 01:46:22;;;;;;;6.25;4.40;;;;;;;15.82;77.83;100101.75;6347341;28;20134;-56
2021/06/08 01:49:23;;;;;;;8.93;4.63;;;;;;;15.81;76.65;100105.31;6347240;28;20402;-56
2021/06/08 01:52:41;;;;;;;12.02;4.70;;;;;;;15.86;76.93;100106.63;6345804;28;20047;-56
2021/06/08 01:55:44;;;;;;;8.95;4.68;;;;;;;15.87;76.73;100107.44;6347437;28;20043;-55
2021/06/08 01:58:54;;;;;;;11.05;4.35;;;;;;;15.82;78.37;100109.63;6346972;28;20039;-56
2021/06/08 02:02:11;;;;;;;8.40;4.40;;;;;;;15.85;77.83;100104.94;6346872;28;20047;-56
2021/06/08 02:05:20;;;;;;;5.85;4.30;;;;;;;15.82;76.99;100107.00;6346988;28;20047;-56
2021/06/08 02:08:27;;;;;;;8.05;4.70;;;;;;;15.86;77.78;100105.78;6346863;28;20036;-56
2021/06/08 02:11:43;;;;;;;6.60;4.55;;;;;;;15.91;77.07;100109.69;6346569;28;20060;-56
2021/06/08 02:14:53;;;;;;;7.30;5.60;;;;;;;15.85;77.13;100110.19;6346786;28;20047;-55
2021/06/08 02:17:55;;;;;;;7.13;4.50;;;;;;;15.88;78.24;100109.97;6346771;28;20043;-56
2021/06/08 02:21:02;;;;;;;8.07;4.78;;;;;;;15.85;77.43;100112.00;6345381;28;20397;-56
2021/06/08 02:24:06;;;;;;;5.95;4.45;;;;;;;15.84;77.17;100113.81;6339421;28;20044;-57
2021/06/08 02:27:09;;;;;;;7.15;4.78;;;;;;;15.88;76.77;100117.03;6319973;28;20395;-56
2021/06/08 02:30:11;;;;;;;8.23;4.78;;;;;;;15.83;77.36;100117.38;6321101;28;20508;-56
2021/06/08 02:33:13;;;;;;;;;;;;;;;15.87;76.54;100120.59;6321733;28;20040;-56
2021/06/08 02:36:15;;;;;;;8.18;4.70;;;;;;;15.85;75.98;100122.53;6319941;28;19947;-56
2021/06/08 02:39:16;;;;;;;11.77;4.45;;;;;;;15.86;76.49;100122.41;6321019;28;20471;-61
2021/06/08 02:42:18;;;;;;;8.02;4.60;;;;;;;15.86;76.13;100126.84;6321039;28;20039;-62
2021/06/08 02:45:20;;;;;;;;;;;;;;;15.86;76.23;100125.03;6303643;28;20107;-62
2021/06/08 02:48:22;;;;;;;8.18;4.30;;;;;;;15.86;75.77;100122.41;6321083;28;20003;-62
2021/06/08 02:51:24;;;;;;;9.70;4.50;;;;;;;15.88;75.76;100115.22;6319674;28;20048;-62
2021/06/08 02:54:25;;;;;;;;;;;;;;;15.86;75.35;100119.78;6320286;28;20070;-61
2021/06/08 02:57:27;;;;;;;9.07;4.95;;;;;;;15.91;75.40;100122.03;6320807;28;19920;-61
2021/06/08 03:00:28;;;;;;;5.75;4.38;;;;;;;15.92;74.56;100121.06;6319752;28;20056;-61
2021/06/08 03:03:36;;;;;;;11.27;4.35;;;;;;;15.90;74.59;100120.38;6320657;28;20035;-62
2021/06/08 03:06:42;;;;;;;9.15;4.72;;;;;;;15.97;74.58;100125.94;6320889;28;20039;-62
2021/06/08 03:09:51;;;;;;;8.75;4.55;;;;;;;15.99;74.42;100126.66;6319394;28;20067;-61
2021/06/08 03:12:56;;;;;;;11.05;4.97;;;;;;;15.95;74.63;100131.34;6319440;28;20032;-57
2021/06/08 03:16:00;;;;;;;7.80;4.75;;;;;;;16.00;74.88;100129.19;6320643;28;20051;-56
2021/06/08 03:19:05;;;;;;;6.32;4.50;;;;;;;16.01;74.66;100130.84;6320612;28;20067;-56
2021/06/08 03:22:13;;;;;;;9.00;4.40;;;;;;;16.05;74.61;100134.88;6320622;28;20047;-56
2021/06/08 03:25:17;;;;;;;7.35;4.47;;;;;;;16.09;74.39;100140.72;6319344;28;20051;-56
2021/06/08 03:28:20;;;;;;;6.03;4.60;;;;;;;16.11;73.70;100139.63;6320533;28;20112;-56
2021/06/08 03:31:21;;;;;;;9.68;4.95;;;;;;;16.14;73.76;100145.59;6320493;28;20044;-57
2021/06/08 03:34:23;;;;;;;7.43;5.10;;;;;;;16.20;73.11;100151.19;6319170;28;20481;-57
2021/06/08 03:37:25;;;;;;;7.10;4.60;;;;;;;16.22;73.04;100151.06;6319301;28;20044;-56
2021/06/08 03:40:27;;;;;;;6.13;4.30;;;;;;;16.26;73.14;100155.94;6302498;28;20127;-57
2021/06/08 03:43:28;;;;;;;12.35;4.68;;;;;;;16.32;73.28;100162.50;6322897;28;20071;-57
2021/06/08 03:46:29;;;;;;;12.68;4.60;;;;;;;16.38;72.66;100155.91;6323651;28;20039;-56
2021/06/08 03:49:31;;;;;;;9.82;4.90;;;;;;;16.39;72.77;100162.81;6306901;28;20051;-56
2021/06/08 03:52:32;;;;;;;;;;;;;;;16.39;74.05;100161.06;6307730;28;20067;-56
2021/06/08 03:55:33;;;;;;;11.05;4.72;;;;;;;16.45;74.39;100160.53;6340322;28;19924;-56
2021/06/08 03:58:35;;;;;;;7.25;5.03;;;;;;;16.47;73.60;100150.72;6340353;28;20392;-56
2021/06/08 04:01:36;;;;;;;;;;;;;;;16.54;73.67;100156.28;6324864;28;20044;-57
2021/06/08 04:04:37;;;;;;;10.30;4.63;;;;;;;16.58;73.03;100157.69;6323266;28;20361;-56
2021/06/08 04:07:40;;;;;;;10.10;4.25;;;;;;;16.63;73.21;100152.84;6324462;28;20089;-56
2021/06/08 04:10:41;;;;;;;8.60;5.07;;;;;;;16.69;73.42;100149.69;6324074;28;20097;-57
2021/06/08 04:13:42;;;;;;;6.97;4.37;;;;;;;16.77;73.01;100156.13;6324241;28;20040;-57
2021/06/08 04:16:45;;;;;;;8.75;4.20;;;;;;;16.78;72.18;100149.88;6329272;28;20287;-56
2021/06/08 04:20:02;;;;;;;7.72;4.25;;;;;;;16.89;72.06;100153.31;6336341;27;20048;-57
2021/06/08 04:23:03;;;;;;;;;;;;;;;16.94;72.51;100150.28;6348538;28;20046;-56
2021/06/08 04:26:04;;;;;;;9.68;4.40;;;;;;;16.99;71.74;100155.16;6328824;28;20269;-55
2021/06/08 04:29:05;;;;;;;9.02;4.20;;;;;;;17.06;71.85;100159.75;6323989;28;20044;-56
2021/06/08 04:32:06;;;;;;;15.82;4.60;;;;;;;17.10;71.34;100155.88;6322724;28;20501;-57
2021/06/08 04:35:07;;;;;;;8.70;4.30;;;;;;;17.18;70.24;100152.59;6322652;28;20138;-55
2021/06/08 04:38:08;;;;;;;6.20;4.68;;;;;;;17.26;71.57;100158.03;6309559;28;20497;-56
2021/06/08 04:41:09;;;;;;;6.80;4.40;;;;;;;17.33;70.87;100155.69;6329816;28;20043;-57
2021/06/08 04:44:15;;;;;;;9.45;4.28;;;;;;;17.39;70.25;100160.41;6348871;27;20035;-57
2021/06/08 04:47:18;;;;;;;7.15;4.40;;;;;;;17.47;69.79;100165.03;6347518;28;20142;-57
2021/06/08 04:50:18;;;;;;;6.78;4.18;;;;;;;17.53;69.74;100161.84;6343040;28;20527;-56
2021/06/08 04:53:20;;;;;;;7.30;3.75;;;;;;;17.60;70.24;100162.94;6323004;28;20040;-57
2021/06/08 04:56:21;;;;;;;8.75;4.22;;;;;;;17.68;70.26;100165.75;6321559;28;20047;-57
2021/06/08 05:00:05;;;;;;;8.97;4.23;;;;;;;17.78;69.67;100165.78;6288679;28;20079;-57
2021/06/08 05:03:29;;;;;;;9.65;4.72;;;;;;;17.87;69.05;100164.13;6293827;28;20498;-57
2021/06/08 05:06:34;;;;;;;5.28;3.92;;;;;;;17.95;68.25;100168.72;6321609;28;20060;-56
2021/06/08 05:09:40;;;;;;;8.32;4.40;;;;;;;18.05;68.28;100170.41;6321612;28;20056;-56
2021/06/08 05:12:44;;;;;;;8.38;4.80;;;;;;;18.11;68.76;100176.94;6322695;28;20076;-57
2021/06/08 05:15:46;;;;;;;7.88;4.43;;;;;;;18.17;68.73;100172.91;6327857;28;20070;-57
2021/06/08 05:18:52;;;;;;;10.60;4.20;;;;;;;18.28;69.20;100175.38;6348529;28;20047;-57
2021/06/08 05:21:53;;;;;;;9.18;4.20;;;;;;;18.36;68.08;100178.16;6339087;28;20506;-57
2021/06/08 05:24:56;;;;;;;6.85;4.32;;;;;;;18.45;67.43;100179.13;6332942;28;20036;-57
2021/06/08 05:27:58;;;;;;;7.30;4.18;;;;;;;18.53;66.82;100181.88;6331923;28;20055;-58
2021/06/08 05:30:59;;;;;;;8.95;4.20;;;;;;;18.64;65.83;100176.44;6341646;28;20464;-63
2021/06/08 05:34:01;;;;;;;8.68;3.88;;;;;;;18.73;65.10;100177.41;6346485;28;20039;-57
2021/06/08 05:37:10;;;;;;;5.25;3.97;;;;;;;18.84;65.53;100181.72;6347622;28;20092;-57
2021/06/08 05:40:11;;;;;;;6.30;3.67;;;;;;;18.92;65.35;100180.03;6347371;28;20035;-57
2021/06/08 05:43:11;;;;;;;41.47;4.37;;;;;;;19.03;65.21;100178.19;6323280;28;20036;-56
2021/06/08 05:46:12;;;;;;;8.55;4.00;;;;;;;19.13;65.73;100179.81;6320865;28;20047;-57
2021/06/08 05:49:13;;;;;;;9.50;3.88;;;;;;;19.26;64.92;100181.28;6338131;28;20035;-57
2021/06/08 05:52:14;;;;;;;8.68;4.00;;;;;;;19.36;62.16;100175.94;6329113;28;20035;-62
2021/06/08 05:55:16;;;;;;;6.70;4.13;;;;;;;19.47;61.64;100173.09;6347388;28;20046;-62
2021/06/08 05:58:25;;;;;;;9.77;3.55;;;;;;;19.60;62.99;100183.31;6345840;28;20035;-62
2021/06/08 06:01:27;;;;;;;9.02;3.75;;;;;;;19.71;61.39;100185.78;6347034;28;20067;-62
2021/06/08 06:04:28;;;;;;;9.73;3.80;;;;;;;19.78;60.47;100178.09;6346683;28;20042;-62
2021/06/08 06:07:31;;;;;;;5.97;3.40;;;;;;;19.87;59.37;100185.09;6328667;28;20151;-62
2021/06/08 06:10:32;;;;;;;6.25;3.58;;;;;;;19.99;58.26;100185.72;6346766;28;20075;-63
2021/06/08 06:13:37;;;;;;;8.52;3.70;;;;;;;20.10;57.92;100181.03;6346710;28;20044;-65
2021/06/08 06:16:44;;;;;;;10.73;3.50;;;;;;;20.20;56.72;100180.09;6347072;28;20493;-64
2021/06/08 06:19:46;;;;;;;7.35;3.85;;;;;;;20.37;57.38;100189.88;6334632;28;20113;-63
2021/06/08 06:22:48;;;;;;;7.38;3.28;;;;;;;20.47;56.50;100185.31;6322196;28;20059;-63
2021/06/08 06:25:49;;;;;;;;;;;;;;;20.60;55.53;100184.94;6322579;28;20044;-64
2021/06/08 06:28:50;;;;;;;9.37;3.23;;;;;;;20.70;54.83;100193.59;6322387;28;19920;-63
2021/06/08 06:31:55;;;;;;;4.90;3.30;;;;;;;20.81;52.85;100179.25;6322909;28;20051;-64
2021/06/08 06:34:56;;;;;;;6.30;2.85;;;;;;;20.96;53.17;100179.53;6336594;28;20415;-57
2021/06/08 06:37:57;;;;;;;6.70;3.20;;;;;;;21.06;52.84;100180.22;6330907;28;20047;-58
2021/06/08 06:41:04;;;;;;;7.07;3.07;;;;;;;21.21;52.95;100174.31;6330519;28;20035;-57
2021/06/08 06:44:06;;;;;;;7.60;3.40;;;;;;;21.32;52.00;100174.03;6345163;28;20075;-58
2021/06/08 06:47:07;;;;;;;3.60;2.95;;;;;;;21.40;51.58;100173.25;6342572;28;20050;-57
2021/06/08 06:50:11;;;;;;;5.35;3.30;;;;;;;21.48;51.37;100176.78;6346000;28;20077;-57
2021/06/08 06:53:14;;;;;;;9.40;4.72;;;;;;;21.61;52.09;100181.63;6346306;28;20044;-58
2021/06/08 06:56:17;;;;;;;10.75;3.60;;;;;;;21.72;50.59;100173.34;6345890;28;20047;-57
2021/06/08 06:59:19;;;;;;;12.18;3.35;;;;;;;21.79;50.36;100184.16;6344850;28;20040;-57
2021/06/08 07:02:23;;;;;;;4.97;2.92;;;;;;;21.90;48.20;100180.34;6345861;28;20040;-58
2021/06/08 07:05:31;;;;;;;7.03;3.05;;;;;;;22.06;47.19;100182.19;6345647;28;20043;-58
2021/06/08 07:08:33;;;;;;;4.75;2.97;;;;;;;22.17;46.72;100179.19;6345661;28;20093;-58
2021/06/08 07:11:34;;;;;;;7.00;2.90;;;;;;;22.25;47.32;100184.53;6345816;28;20044;-58
2021/06/08 07:14:35;;;;;;;6.20;2.80;;;;;;;22.34;47.32;100182.72;6345849;28;20043;-58
2021/06/08 07:17:38;;;;;;;5.07;2.80;;;;;;;22.43;46.28;100184.38;6347047;28;20552;-57
2021/06/08 07:20:39;;;;;;;7.00;2.70;;;;;;;22.53;44.42;100189.53;6332443;28;20067;-58
2021/06/08 07:23:41;;;;;;;4.20;2.50;;;;;;;22.57;43.65;100188.19;6350453;28;20436;-58
2021/06/08 07:26:42;;;;;;;7.60;2.70;;;;;;;22.68;44.24;100192.31;6350907;28;20469;-59
2021/06/08 07:29:44;;;;;;;7.22;2.70;;;;;;;22.75;42.94;100185.31;6350438;28;20050;-58
2021/06/08 07:33:03;;;;;;;;;;;;;;;22.82;42.37;100190.81;6349727;28;20044;-58
2021/06/08 07:36:18;;;;;;;6.50;2.45;;;;;;;22.88;42.35;100190.94;6348908;28;19924;-58
2021/06/08 07:39:47;;;;;;;6.88;2.80;;;;;;;22.94;42.11;100184.94;6349025;28;20044;-58
2021/06/08 07:43:01;;;;;;;3.25;2.42;;;;;;;23.05;43.14;100185.63;6346238;28;20055;-58
2021/06/08 07:46:10;;;;;;;8.70;2.72;;;;;;;23.18;42.71;100188.53;6350350;28;20100;-57
2021/06/08 07:49:12;;;;;;;4.18;2.60;;;;;;;23.30;40.00;100183.69;6348586;28;20052;-57
2021/06/08 07:52:16;;;;;;;5.65;2.47;;;;;;;23.34;40.76;100187.66;6348688;28;20067;-58
2021/06/08 07:55:17;;;;;;;7.22;2.40;;;;;;;23.37;37.67;100189.13;6349996;28;20663;-58
2021/06/08 07:58:23;;;;;;;2.80;2.40;;;;;;;23.41;36.56;100187.78;6349908;28;20047;-58
2021/06/08 08:01:25;;;;;;;3.75;2.42;;;;;;;23.54;36.82;100188.06;6349658;28;20048;-58
2021/06/08 08:04:26;;;;;;;4.10;2.28;;;;;;;23.64;37.07;100187.81;6348276;28;20067;-58
2021/06/08 08:07:27;;;;;;;5.63;2.75;;;;;;;23.66;36.59;100184.00;6331237;28;20047;-58
2021/06/08 08:10:28;;;;;;;4.18;2.30;;;;;;;23.74;37.58;100185.75;6348084;28;20409;-58
2021/06/08 08:13:29;;;;;;;9.50;2.50;;;;;;;23.83;37.96;100181.28;6349396;28;20071;-57
2021/06/08 08:16:30;;;;;;;7.07;2.30;;;;;;;23.90;39.58;100182.22;6349235;28;20044;-57
2021/06/08 08:19:31;;;;;;;5.93;2.60;;;;;;;23.89;38.13;100180.56;6349151;28;20047;-57
2021/06/08 08:22:32;;;;;;;6.17;2.53;;;;;;;23.95;36.85;100185.19;6349207;28;20576;-58
2021/06/08 08:25:33;;;;;;;4.25;2.20;;;;;;;24.03;36.34;100186.94;6331013;28;20036;-57
2021/06/08 08:28:35;;;;;;;4.53;2.53;;;;;;;24.12;38.41;100180.56;6348891;28;20124;-58
2021/06/08 08:31:37;;;;;;;5.15;2.40;;;;;;;24.23;37.35;100179.28;6347881;28;20075;-57
2021/06/08 08:34:39;;;;;;;2.40;2.20;;;;;;;24.26;36.80;100173.63;6348831;28;20048;-57
2021/06/08 08:37:40;;;;;;;3.78;2.30;;;;;;;24.34;37.16;100169.03;6330861;28;20047;-58
2021/06/08 08:40:41;;;;;;;5.00;2.23;;;;;;;24.41;36.40;100178.97;6348671;28;20091;-58
2021/06/08 08:43:46;;;;;;;6.20;2.50;;;;;;;24.45;34.66;100178.44;6348649;28;20040;-58
2021/06/08 08:46:47;;;;;;;5.72;2.22;;;;;;;24.53;36.03;100178.38;6348557;28;20119;-58
2021/06/08 08:49:48;;;;;;;3.90;2.33;;;;;;;24.59;34.21;100176.00;6347178;28;20054;-58
2021/06/08 08:52:56;;;;;;;3.37;2.47;;;;;;;24.65;33.92;100172.63;6347266;28;20047;-57
2021/06/08 08:55:57;;;;;;;3.65;2.30;;;;;;;24.78;37.33;100179.97;6348310;28;20323;-58
2021/06/08 08:59:06;;;;;;;4.57;2.58;;;;;;;24.83;33.72;100183.75;6347073;28;20039;-57
2021/06/08 09:02:09;;;;;;;3.28;2.60;;;;;;;24.98;36.57;100186.44;6348146;28;20039;-57
2021/06/08 09:05:10;;;;;;;3.50;2.47;;;;;;;25.08;35.55;100170.97;6348111;28;20504;-62
2021/06/08 09:08:11;;;;;;;3.42;2.60;;;;;;;24.93;35.84;100181.66;6348102;28;20047;-63
2021/06/08 09:11:13;;;;;;;3.83;2.75;;;;;;;24.85;36.13;100173.75;6347810;28;20108;-63
2021/06/08 09:14:15;;;;;;;4.65;2.50;;;;;;;24.74;33.24;100174.19;6347786;28;20036;-63
2021/06/08 09:17:18;;;;;;;3.55;2.58;;;;;;;24.67;34.74;100181.28;6346629;28;20066;-63
2021/06/08 09:20:19;;;;;;;6.22;2.80;;;;;;;24.67;35.03;100181.28;6347640;28;20039;-63
2021/06/08 09:23:24;;;;;;;6.53;2.53;;;;;;;24.36;35.27;100174.19;6346792;28;20082;-63
2021/06/08 09:26:24;;;;;;;4.43;2.50;;;;;;;24.20;33.28;100175.16;6347593;28;20047;-63
2021/06/08 09:29:34;;;;;;;3.42;2.40;;;;;;;24.58;33.83;100169.00;6347341;28;20062;-62
2021/06/08 09:32:35;;;;;;;4.65;2.45;;;;;;;24.55;33.48;100172.88;6346384;28;20056;-63
2021/06/08 09:35:36;;;;;;;7.77;2.47;;;;;;;24.83;33.94;100170.44;6346014;28;20138;-62
2021/06/08 09:38:41;;;;;;;4.23;2.70;;;;;;;24.87;33.69;100170.84;6347477;28;20390;-63
2021/06/08 09:41:49;;;;;;;4.45;2.65;;;;;;;24.92;35.10;100160.47;6346635;28;20520;-63
2021/06/08 09:44:51;;;;;;;2.65;2.33;;;;;;;25.05;34.16;100170.50;6329192;28;20430;-62
2021/06/08 09:48:00;;;;;;;10.23;2.53;;;;;;;25.20;33.69;100159.78;6312207;28;20044;-63
2021/06/08 09:51:01;;;;;;;3.80;2.40;;;;;;;25.28;36.06;100157.88;6347257;28;20060;-62
2021/06/08 09:54:02;;;;;;;2.72;2.47;;;;;;;25.45;36.39;100168.34;6347085;28;20505;-63
2021/06/08 09:57:17;;;;;;;2.90;2.43;;;;;;;25.63;33.42;100157.25;6345647;28;20074;-63
2021/06/08 10:00:18;;;;;;;5.47;2.50;;;;;;;25.78;33.52;100154.50;6346864;28;20043;-63
2021/06/08 10:03:36;;;;;;;6.10;2.67;;;;;;;25.94;33.46;100146.28;6328886;28;20059;-63
2021/06/08 10:06:40;;;;;;;4.50;2.72;;;;;;;26.11;34.96;100152.19;6346624;28;20060;-63
2021/06/08 10:10:00;;;;;;;4.22;2.50;;;;;;;26.14;29.46;100157.16;6346355;28;20062;-63
2021/06/08 10:13:05;;;;;;;5.78;2.65;;;;;;;26.31;31.21;100153.16;6346589;28;20047;-63
2021/06/08 10:16:11;;;;;;;5.30;2.58;;;;;;;26.42;32.50;100148.28;6345161;28;20504;-63
2021/06/08 10:19:24;;;;;;;6.18;2.67;;;;;;;26.64;32.29;100157.13;6346414;28;20070;-63
2021/06/08 10:22:31;;;;;;;4.13;1.98;;;;;;;26.79;30.89;100148.97;6346982;28;20477;-63
2021/06/08 10:25:32;;;;;;;2.58;2.38;;;;;;;26.63;31.65;100140.25;6328504;28;20047;-64
2021/06/08 10:28:34;;;;;;;2.92;2.40;;;;;;;26.58;29.69;100139.19;6345407;28;20035;-63
2021/06/08 10:31:37;;;;;;;3.55;2.20;;;;;;;26.81;31.50;100138.91;6328195;28;20043;-63
2021/06/08 10:34:40;;;;;;;3.58;2.50;;;;;;;27.09;31.06;100141.50;6346342;28;20047;-63
2021/06/08 10:37:41;;;;;;;5.57;2.50;;;;;;;27.20;30.92;100124.88;6346025;28;20047;-63
2021/06/08 10:40:43;;;;;;;5.35;2.35;;;;;;;26.74;30.79;100133.50;6346016;28;20031;-63
2021/06/08 10:43:45;;;;;;;3.72;2.55;;;;;;;26.29;30.93;100133.81;6346002;28;20127;-63
2021/06/08 10:46:50;;;;;;;6.65;2.60;;;;;;;26.11;31.79;100131.63;6345087;28;20052;-63
2021/06/08 10:49:52;;;;;;;6.22;2.70;;;;;;;26.46;30.88;100130.84;6345877;28;20456;-63
2021/06/08 10:52:56;;;;;;;3.03;2.40;;;;;;;26.71;31.51;100121.38;6348028;28;20089;-63
2021/06/08 10:55:58;;;;;;;3.70;2.38;;;;;;;26.85;29.79;100118.75;6350084;28;20457;-63
2021/06/08 10:59:03;;;;;;;3.80;2.40;;;;;;;26.90;29.73;100114.47;6351097;28;20077;-63
2021/06/08 11:02:06;;;;;;;6.90;2.30;;;;;;;27.02;29.83;100112.03;6351105;28;20054;-63
2021/06/08 11:05:07;;;;;;;3.33;2.38;;;;;;;27.20;28.09;100113.31;6351051;28;20067;-63
2021/06/08 11:08:08;;;;;;;5.25;2.60;;;;;;;27.39;26.60;100106.44;6350925;28;20047;-63
2021/06/08 11:11:09;;;;;;;8.00;2.63;;;;;;;27.68;28.50;100116.78;6350803;27;20558;-63
2021/06/08 11:17:36;;;;;;;2.55;2.35;;;;;;;27.89;28.40;100106.94;6340050;28;20051;-63
2021/06/08 11:20:37;;;;;;;4.60;2.50;;;;;;;28.14;27.69;100107.13;6350491;28;20038;-63
2021/06/08 11:23:42;;;;;;;5.28;2.13;;;;;;;28.04;27.39;100102.19;6350686;28;20055;-63
2021/06/08 11:26:52;;;;;;;7.63;2.67;;;;;;;27.50;28.08;100095.94;6349410;28;20056;-63
2021/06/08 11:29:57;;;;;;;7.07;2.45;;;;;;;27.11;27.81;100097.44;6349103;28;20052;-63
2021/06/08 11:33:00;;;;;;;2.42;2.17;;;;;;;26.85;29.51;100100.00;6350576;28;20054;-63
2021/06/08 11:36:23;;;;;;;5.45;2.60;;;;;;;26.59;29.25;100104.22;6349001;28;20061;-63
2021/06/08 11:39:24;;;;;;;4.47;2.40;;;;;;;26.91;29.58;100102.72;6350078;28;20055;-63
2021/06/08 11:42:34;;;;;;;7.00;2.75;;;;;;;27.62;30.02;100098.03;6350127;28;21071;-63
2021/06/08 11:45:41;;;;;;;3.35;2.30;;;;;;;27.96;27.87;100090.84;6350085;28;20383;-63
2021/06/08 11:48:47;;;;;;;4.97;2.10;;;;;;;28.21;26.98;100082.97;6349863;28;20112;-63
2021/06/08 11:52:06;;;;;;;5.20;2.33;;;;;;;28.64;27.62;100077.97;6349099;28;20538;-63
2021/06/08 11:55:23;;;;;;;7.85;2.40;;;;;;;29.00;27.37;100076.59;6350249;28;20063;-63
2021/06/08 11:58:35;;;;;;;4.78;2.40;;;;;;;29.08;26.82;100070.97;6349788;28;20040;-63
2021/06/08 12:01:40;;;;;;;6.05;2.60;;;;;;;30.92;25.25;100059.06;6349520;28;20047;-63
2021/06/08 12:05:07;;;;;;;2.72;2.25;;;;;;;31.97;22.85;100063.09;6349104;28;20044;-64
2021/06/08 12:08:11;;;;;;;5.07;2.15;;;;;;;29.59;23.12;100068.41;6350321;28;20039;-63
2021/06/08 12:11:16;;;;;;;3.13;2.10;;;;;;;28.73;24.38;100060.59;6350222;28;20077;-63
2021/06/08 12:14:19;;;;;;;4.93;2.10;;;;;;;32.76;19.87;100075.38;6349181;28;20040;-62
2021/06/08 12:17:20;;;;;;;2.63;2.00;;;;;;;34.82;18.69;100055.97;6331728;28;20477;-63
2021/06/08 12:20:22;;;;;;;2.55;1.83;;;;;;;36.21;17.81;100058.84;6347958;28;20496;-63
2021/06/08 12:23:31;;;;;;;2.92;1.98;;;;;;;36.33;18.45;100061.34;6349456;28;20047;-63
2021/06/08 12:26:35;;;;;;;4.25;1.58;;;;;;;35.34;18.42;100063.59;6347682;28;20052;-63
2021/06/08 12:29:53;;;;;;;5.63;2.10;;;;;;;37.36;16.54;100050.81;6348659;28;20047;-63
2021/06/08 12:32:58;;;;;;;3.40;1.88;;;;;;;37.64;15.79;100053.00;6346461;28;20040;-63
2021/06/08 12:36:06;;;;;;;5.95;2.08;;;;;;;35.48;18.19;100053.13;6349295;28;20474;-64
2021/06/08 12:39:12;;;;;;;3.78;2.30;;;;;;;33.46;19.67;100042.66;6348780;28;20048;-63
2021/06/08 12:42:16;;;;;;;5.85;2.10;;;;;;;31.31;21.40;100049.59;6348846;28;20424;-63
2021/06/08 12:45:21;;;;;;;5.20;2.00;;;;;;;30.66;22.20;100052.94;6348891;28;20039;-63
2021/06/08 12:48:22;;;;;;;3.58;1.90;;;;;;;30.70;22.55;100038.00;6348670;28;20039;-63
2021/06/08 12:51:30;;;;;;;6.75;2.10;;;;;;;30.60;22.12;100040.41;6348245;28;20050;-63
2021/06/08 12:54:43;;;;;;;7.07;2.05;;;;;;;30.45;21.63;100035.38;6348694;28;20047;-63
2021/06/08 12:57:44;;;;;;;2.50;1.90;;;;;;;30.15;22.37;100032.59;6348090;28;20036;-63
2021/06/08 13:00:46;;;;;;;4.40;1.98;;;;;;;30.17;22.05;100027.81;6330290;28;20063;-63
2021/06/08 13:03:48;;;;;;;5.70;1.83;;;;;;;30.27;23.56;100030.78;6348287;28;20413;-63
2021/06/08 13:06:56;;;;;;;3.20;2.00;;;;;;;30.29;24.43;100031.44;6348162;28;20044;-63
2021/06/08 13:10:08;;;;;;;5.80;2.30;;;;;;;30.17;23.04;100025.09;6346850;28;20067;-63
2021/06/08 13:13:15;;;;;;;6.57;2.08;;;;;;;30.45;23.09;100021.09;6348009;28;20074;-64
2021/06/08 13:16:28;;;;;;;6.63;2.08;;;;;;;30.57;24.13;100011.22;6345899;28;20089;-62
2021/06/08 13:19:31;;;;;;;4.30;1.80;;;;;;;30.72;23.95;100013.50;6347702;28;20035;-62
2021/06/08 13:22:36;;;;;;;5.20;2.30;;;;;;;30.60;23.74;100010.78;6346690;28;20494;-62
2021/06/08 13:25:38;;;;;;;2.88;2.20;;;;;;;30.42;24.15;100017.00;6347835;28;20050;-62
2021/06/08 13:28:42;;;;;;;4.90;2.15;;;;;;;30.43;25.36;100015.13;6347595;28;20043;-62
2021/06/08 13:31:44;;;;;;;3.53;2.40;;;;;;;30.39;24.06;100011.22;6346969;28;20082;-63
2021/06/08 13:34:45;;;;;;;10.80;2.50;;;;;;;30.27;24.25;100014.66;6347149;28;20047;-64
2021/06/08 13:37:58;;;;;;;7.32;2.30;;;;;;;30.18;24.35;100015.97;6346492;28;20053;-59
2021/06/08 13:40:59;;;;;;;4.07;2.00;;;;;;;29.86;24.59;100015.28;6347782;28;20093;-59
2021/06/08 13:44:06;;;;;;;7.63;2.30;;;;;;;29.82;25.67;100009.53;6348279;28;20070;-64
2021/06/08 13:47:07;;;;;;;6.78;2.70;;;;;;;29.61;25.17;100002.66;6347082;28;20052;-64
2021/06/08 13:50:23;;;;;;;5.47;2.20;;;;;;;29.64;25.23;99999.50;6346655;28;20059;-63
2021/06/08 13:53:24;;;;;;;2.63;2.30;;;;;;;29.59;26.09;99991.28;6348226;28;20040;-64
2021/06/08 13:56:34;;;;;;;5.70;2.35;;;;;;;29.64;25.06;99986.06;6347857;28;20092;-63
2021/06/08 14:03:19;;;;;;;5.10;2.45;;;;;;;29.55;25.86;99982.03;6348002;28;20062;-63
2021/06/08 14:06:20;;;;;;;3.10;2.20;;;;;;;29.53;24.29;99979.53;6347706;28;20047;-64
2021/06/08 14:09:23;;;;;;;4.43;2.65;;;;;;;29.57;24.89;99973.72;6329526;28;20139;-64
2021/06/08 14:12:24;;;;;;;6.72;2.10;;;;;;;29.69;25.03;99972.78;6347550;28;20089;-63
2021/06/08 14:15:25;;;;;;;;;;;;;;;29.59;26.38;99975.16;6346637;28;20078;-63
2021/06/08 14:18:26;;;;;;;7.87;2.60;;;;;;;29.36;27.14;99973.06;6346465;28;19923;-63
2021/06/08 14:21:28;;;;;;;7.10;2.50;;;;;;;28.93;27.38;99971.06;6345984;28;20039;-63
2021/06/08 14:24:30;;;;;;;5.03;2.50;;;;;;;28.63;27.97;99973.50;6347429;28;20481;-63